Aérodrome :
LOGIN :

S'inscrire | Disclaimer

   EN    FR    IT 

 










Légende :    VFR   VFR Marginal   IFR   IFR Intensif   IFR Très Intensif
Visi : 
Plafond : 
>= 8 km
>= 3000ft
5 à 8 km
1000 à 3000 ft
1500m à 5 km
500 à 1000 ft
800 à 1500m
200 à 500 ft
< 800m
< 200 ft
Symboles :   Orages  Brouillard  Fortes neiges  Fortes précipitations  Vent > 20 kt
SIGMETs :   Divers  Orages  Givrage  Turbulence  Onde Orograph.  Cendres Volcan.







- Altitude de l'aérodrome : 80 ft
- Code IATA : LPL
- Voir les cartes d'approche


EGGP - Liverpool John Lennon

DERNIER METAR :
  • 192150Z 19008KT CAVOK 13/11 Q1019

METARs EXPIRÉS :
  • 192120Z 21007KT 9999 FEW045 13/11 Q1019
  • 192050Z 21009KT 9999 FEW042 13/11 Q1020
  • 192020Z 22009KT 9999 FEW046 13/10 Q1020
  • 191950Z 23009KT 9999 FEW043 13/10 Q1020
  • 191920Z 23008KT 9999 FEW045 13/10 Q1020

TAF TAF EGGP
Valide du 19 à 18h jusqu'au 20 à 18h UTC


191657Z 1918/2018 28004KT 9999 FEW035
BECMG 2005/2008 17010KT
TEMPO 2016/2018 9000 -RA
ATIS : +44 151 907 2000 (option 5 or ext 5150)
Météo : +44 871 750 5150
Pas de NOTAMs connus pour ce terrain.



MET'MAP, la Météo Aéronautique d'un coup d'oeil ! - Copyright ORBIFLY Décembre 2007 - Disclaimer

ORBIFLY MET'MAP TEAM :

Programmation & Développement : Alexandra Zaïnal
Conception & Développement : Baudouin d'Aumeries
Co-Programmation & Développement : Marc-Olivier Méhu
Soutien technique & logistique : Manuel Goepfert

Contact : metmap@orbifly.com




SOURCES & CREDITS :

   NOAA